^^
Saratoga-Weather Station Historical Data
Daily Summary for July 12, 2020 Units:  Both    English   Metric
Daily Weekly Monthly Yearly Custom
  High: Low: Average:
Temperature: 96.6 °F /  35.9 °C 69.3 °F /  20.7 °C 79.9 °F /  26.6 °C
Dew Point: 70.2 °F /  21.2 °C 60.4 °F /  15.8 °C 64.8 °F /  18.2 °C
Humidity: 91% 35% 63%
Wind Speed: 14.1mph /  22.7km/h - 1.2mph /  2km/h
Wind Gust: 15mph /  24.1km/h - -
Wind- - SE
Pressure: 29.9 in /  1012.9 hPa 29.8 in /  1009.8 hPa -
Precipitation: 0.09 in /  2.3 mm    
Historical Graphs
 
 
Tabular Data for July 12, 2020
Time Temperature Dew Point Pressure Wind Wind Speed Wind Gust Humidity Rainfall Rate (Hourly) solar
00:03 78.8 °F /  26 °C 64.2 °F /  17.9 °C 29.9in /  1012.9hPa East 0.9mph /  1.4km/h 2mph /  3.2km/h 61% 0in /  0.0mm 0 W/m2
00:08 78.3 °F /  25.7 °C 64.2 °F /  17.9 °C 29.9in /  1012.9hPa Calm   2mph /  3.2km/h 62% 0in /  0.0mm 0 W/m2
00:13 77.9 °F /  25.5 °C 63.9 °F /  17.7 °C 29.9in /  1012.9hPa Calm   1mph /  1.6km/h 62% 0in /  0.0mm 0 W/m2
00:18 77.4 °F /  25.2 °C 63.9 °F /  17.7 °C 29.9in /  1012.9hPa Calm   2mph /  3.2km/h 63% 0in /  0.0mm 0 W/m2
00:23 77 °F /  25 °C 63.9 °F /  17.7 °C 29.9in /  1012.9hPa Calm     64% 0in /  0.0mm 0 W/m2
00:28 76.6 °F /  24.8 °C 63.5 °F /  17.5 °C 29.9in /  1012.9hPa Calm   2mph /  3.2km/h 64% 0in /  0.0mm 0 W/m2
00:33 76.3 °F /  24.6 °C 63.7 °F /  17.6 °C 29.9in /  1012.9hPa Calm     65% 0in /  0.0mm 0 W/m2
00:38 75.9 °F /  24.4 °C 63.3 °F /  17.4 °C 29.9in /  1012.9hPa Calm     65% 0in /  0.0mm 0 W/m2
00:43 75.7 °F /  24.3 °C 63.1 °F /  17.3 °C 29.9in /  1012.9hPa Calm     65% 0in /  0.0mm 0 W/m2
00:48 75.6 °F /  24.2 °C 63 °F /  17.2 °C 29.9in /  1012.9hPa Calm     65% 0in /  0.0mm 0 W/m2
00:53 75.4 °F /  24.1 °C 63.1 °F /  17.3 °C 29.9in /  1012.9hPa Calm     66% 0in /  0.0mm 0 W/m2
00:58 75 °F /  23.9 °C 63 °F /  17.2 °C 29.9in /  1012.9hPa Calm     66% 0in /  0.0mm 0 W/m2
01:03 74.8 °F /  23.8 °C 62.8 °F /  17.1 °C 29.9in /  1012.9hPa Calm     66% 0in /  0.0mm 0 W/m2
01:08 74.8 °F /  23.8 °C 62.8 °F /  17.1 °C 29.9in /  1012.9hPa Calm     66% 0in /  0.0mm 0 W/m2
01:13 74.7 °F /  23.7 °C 63 °F /  17.2 °C 29.9in /  1012.5hPa Calm     67% 0in /  0.0mm 0 W/m2
01:18 74.5 °F /  23.6 °C 62.8 °F /  17.1 °C 29.9in /  1012.5hPa Calm     67% 0in /  0.0mm 0 W/m2
01:23 74.3 °F /  23.5 °C 63.1 °F /  17.3 °C 29.9in /  1012.5hPa Calm     68% 0in /  0.0mm 0 W/m2
01:28 74.1 °F /  23.4 °C 63 °F /  17.2 °C 29.9in /  1012.5hPa Calm     68% 0in /  0.0mm 0 W/m2
01:33 73.9 °F /  23.3 °C 62.8 °F /  17.1 °C 29.9in /  1012.5hPa Calm     68% 0in /  0.0mm 0 W/m2
01:38 73.8 °F /  23.2 °C 62.6 °F /  17 °C 29.9in /  1012.5hPa Calm     68% 0in /  0.0mm 0 W/m2
01:43 73.6 °F /  23.1 °C 62.8 °F /  17.1 °C 29.9in /  1012.5hPa Calm     69% 0in /  0.0mm 0 W/m2
01:48 73.4 °F /  23 °C 62.6 °F /  17 °C 29.9in /  1012.5hPa Calm     69% 0in /  0.0mm 0 W/m2
01:53 73.2 °F /  22.9 °C 62.8 °F /  17.1 °C 29.9in /  1012.5hPa Calm   1mph /  1.6km/h 70% 0in /  0.0mm 0 W/m2
01:58 73.2 °F /  22.9 °C 62.8 °F /  17.1 °C 29.9in /  1012.5hPa ESE 0.9mph /  1.4km/h 1mph /  1.6km/h 70% 0in /  0.0mm 0 W/m2
02:03 73 °F /  22.8 °C 62.6 °F /  17 °C 29.9in /  1012.5hPa Calm   1mph /  1.6km/h 70% 0in /  0.0mm 0 W/m2
02:08 72.9 °F /  22.7 °C 62.4 °F /  16.9 °C 29.9in /  1012.5hPa Calm     70% 0in /  0.0mm 0 W/m2
02:13 72.9 °F /  22.7 °C 63 °F /  17.2 °C 29.9in /  1012.5hPa ESE 0.9mph /  1.4km/h 1mph /  1.6km/h 71% 0in /  0.0mm 0 W/m2
02:18 72.7 °F /  22.6 °C 62.8 °F /  17.1 °C 29.9in /  1012.5hPa ESE 0.9mph /  1.4km/h 2mph /  3.2km/h 71% 0in /  0.0mm 0 W/m2
02:23 72.5 °F /  22.5 °C 62.6 °F /  17 °C 29.9in /  1012.5hPa Calm     71% 0in /  0.0mm 0 W/m2
02:28 72.5 °F /  22.5 °C 63 °F /  17.2 °C 29.9in /  1012.5hPa Calm   2mph /  3.2km/h 72% 0in /  0.0mm 0 W/m2
02:33 72.3 °F /  22.4 °C 62.8 °F /  17.1 °C 29.9in /  1012.5hPa Calm     72% 0in /  0.0mm 0 W/m2
02:38 72.5 °F /  22.5 °C 63 °F /  17.2 °C 29.9in /  1012.9hPa Calm     72% 0in /  0.0mm 0 W/m2
02:43 72.5 °F /  22.5 °C 62.6 °F /  17 °C 29.9in /  1012.5hPa Calm     71% 0in /  0.0mm 0 W/m2
02:48 72.3 °F /  22.4 °C 62.8 °F /  17.1 °C 29.9in /  1012.9hPa Calm     72% 0in /  0.0mm 0 W/m2
02:53 72.3 °F /  22.4 °C 62.8 °F /  17.1 °C 29.9in /  1012.9hPa Calm     72% 0in /  0.0mm 0 W/m2
02:58 72.1 °F /  22.3 °C 62.6 °F /  17 °C 29.9in /  1012.9hPa Calm     72% 0in /  0.0mm 0 W/m2
03:03 72.1 °F /  22.3 °C 62.6 °F /  17 °C 29.9in /  1012.9hPa Calm     72% 0in /  0.0mm 0 W/m2
03:08 72.1 °F /  22.3 °C 63 °F /  17.2 °C 29.9in /  1012.5hPa Calm     73% 0in /  0.0mm 0 W/m2
03:13 72 °F /  22.2 °C 62.8 °F /  17.1 °C 29.9in /  1012.9hPa Calm     73% 0in /  0.0mm 0 W/m2
03:18 71.8 °F /  22.1 °C 63 °F /  17.2 °C 29.9in /  1012.5hPa Calm     74% 0in /  0.0mm 0 W/m2
03:23 71.8 °F /  22.1 °C 63 °F /  17.2 °C 29.9in /  1012.5hPa Calm     74% 0in /  0.0mm 0 W/m2
03:28 71.8 °F /  22.1 °C 63 °F /  17.2 °C 29.9in /  1012.9hPa Calm     74% 0in /  0.0mm 0 W/m2
03:33 71.6 °F /  22 °C 63 °F /  17.2 °C 29.9in /  1012.5hPa Calm     74% 0in /  0.0mm 0 W/m2
03:38 71.4 °F /  21.9 °C 62.8 °F /  17.1 °C 29.9in /  1012.9hPa Calm     74% 0in /  0.0mm 0 W/m2
03:43 71.2 °F /  21.8 °C 63 °F /  17.2 °C 29.9in /  1012.9hPa Calm     75% 0in /  0.0mm 0 W/m2
03:48 71.2 °F /  21.8 °C 63 °F /  17.2 °C 29.9in /  1012.9hPa ESE 0.9mph /  1.4km/h 2mph /  3.2km/h 75% 0in /  0.0mm 0 W/m2
03:53 71.1 °F /  21.7 °C 63.1 °F /  17.3 °C 29.9in /  1012.9hPa Calm     76% 0in /  0.0mm 0 W/m2
03:58 71.1 °F /  21.7 °C 63.1 °F /  17.3 °C 29.9in /  1012.9hPa Calm     76% 0in /  0.0mm 0 W/m2
04:03 71.1 °F /  21.7 °C 63.1 °F /  17.3 °C 29.9in /  1012.9hPa ESE 0.9mph /  1.4km/h 1mph /  1.6km/h 76% 0in /  0.0mm 0 W/m2
04:08 71.1 °F /  21.7 °C 63.1 °F /  17.3 °C 29.9in /  1012.9hPa Calm   2mph /  3.2km/h 76% 0in /  0.0mm 0 W/m2
04:13 71.2 °F /  21.8 °C 63.3 °F /  17.4 °C 29.9in /  1012.5hPa ESE 0.9mph /  1.4km/h 2mph /  3.2km/h 76% 0in /  0.0mm 0 W/m2
04:19 71.2 °F /  21.8 °C 63 °F /  17.2 °C 29.9in /  1012.5hPa Calm     75% 0in /  0.0mm 0 W/m2
04:24 71.2 °F /  21.8 °C 63 °F /  17.2 °C 29.9in /  1012.9hPa Calm     75% 0in /  0.0mm 0 W/m2
04:29 71.2 °F /  21.8 °C 63.3 °F /  17.4 °C 29.9in /  1012.5hPa Calm   1mph /  1.6km/h 76% 0in /  0.0mm 0 W/m2
04:34 71.2 °F /  21.8 °C 63.3 °F /  17.4 °C 29.9in /  1012.5hPa ESE 0.9mph /  1.4km/h 1mph /  1.6km/h 76% 0in /  0.0mm 0 W/m2
04:39 71.2 °F /  21.8 °C 63.3 °F /  17.4 °C 29.9in /  1012.5hPa Calm   2mph /  3.2km/h 76% 0in /  0.0mm 0 W/m2
04:44 71.1 °F /  21.7 °C 63.5 °F /  17.5 °C 29.9in /  1012.5hPa Calm   1mph /  1.6km/h 77% 0in /  0.0mm 0 W/m2
04:49 71.1 °F /  21.7 °C 63.5 °F /  17.5 °C 29.9in /  1012.5hPa Calm   2mph /  3.2km/h 77% 0in /  0.0mm 0 W/m2
04:54 71.1 °F /  21.7 °C 63.5 °F /  17.5 °C 29.9in /  1012.5hPa ESE 0.9mph /  1.4km/h 2mph /  3.2km/h 77% 0in /  0.0mm 0 W/m2
04:59 70.9 °F /  21.6 °C 63.3 °F /  17.4 °C 29.9in /  1012.5hPa ESE 0.9mph /  1.4km/h 2mph /  3.2km/h 77% 0in /  0.0mm 0 W/m2
05:04 70.9 °F /  21.6 °C 63.3 °F /  17.4 °C 29.9in /  1012.5hPa ESE 0.9mph /  1.4km/h 1mph /  1.6km/h 77% 0in /  0.0mm 0 W/m2
05:09 70.7 °F /  21.5 °C 63.5 °F /  17.5 °C 29.9in /  1012.5hPa Calm   2mph /  3.2km/h 78% 0in /  0.0mm 0 W/m2
05:14 70.5 °F /  21.4 °C 63.3 °F /  17.4 °C 29.9in /  1012.5hPa Calm     78% 0in /  0.0mm 0 W/m2
05:19 70.5 °F /  21.4 °C 63.3 °F /  17.4 °C 29.9in /  1012.2hPa Calm   1mph /  1.6km/h 78% 0in /  0.0mm 0 W/m2
05:24 70.3 °F /  21.3 °C 63.5 °F /  17.5 °C 29.9in /  1012.2hPa Calm     79% 0in /  0.0mm 0 W/m2
05:29 70.3 °F /  21.3 °C 63.5 °F /  17.5 °C 29.9in /  1012.2hPa Calm   1mph /  1.6km/h 79% 0in /  0.0mm 0 W/m2
05:34 70.2 °F /  21.2 °C 63.3 °F /  17.4 °C 29.9in /  1012.2hPa Calm   1mph /  1.6km/h 79% 0in /  0.0mm 0 W/m2
05:39 70.2 °F /  21.2 °C 63.3 °F /  17.4 °C 29.9in /  1012.5hPa Calm     79% 0in /  0.0mm 0 W/m2
05:44 70 °F /  21.1 °C 63.1 °F /  17.3 °C 29.9in /  1012.2hPa Calm     79% 0in /  0.0mm 0 W/m2
05:49 69.8 °F /  21 °C 63.3 °F /  17.4 °C 29.9in /  1012.2hPa Calm     80% 0in /  0.0mm 0 W/m2
05:54 69.6 °F /  20.9 °C 63.1 °F /  17.3 °C 29.9in /  1012.2hPa Calm     80% 0in /  0.0mm 0 W/m2
05:59 69.6 °F /  20.9 °C 63.5 °F /  17.5 °C 29.9in /  1012.2hPa Calm     81% 0in /  0.0mm 0 W/m2
06:04 69.4 °F /  20.8 °C 63.3 °F /  17.4 °C 29.9in /  1012.2hPa Calm     81% 0in /  0.0mm 0 W/m2
06:09 69.4 °F /  20.8 °C 63.3 °F /  17.4 °C 29.9in /  1012.2hPa Calm     81% 0in /  0.0mm 0 W/m2
06:14 69.3 °F /  20.7 °C 63.1 °F /  17.3 °C 29.9in /  1012.5hPa Calm     81% 0in /  0.0mm 0 W/m2
06:19 69.3 °F /  20.7 °C 63.1 °F /  17.3 °C 29.9in /  1012.5hPa Calm     81% 0in /  0.0mm 0 W/m2
06:24 69.3 °F /  20.7 °C 63.5 °F /  17.5 °C 29.9in /  1012.5hPa Calm     82% 0in /  0.0mm 5 W/m2
06:29 69.3 °F /  20.7 °C 63.1 °F /  17.3 °C 29.9in /  1012.5hPa Calm     81% 0in /  0.0mm 9 W/m2
06:34 69.3 °F /  20.7 °C 63.1 °F /  17.3 °C 29.9in /  1012.5hPa Calm     81% 0in /  0.0mm 11 W/m2
06:39 69.3 °F /  20.7 °C 63.1 °F /  17.3 °C 29.9in /  1012.5hPa Calm     81% 0in /  0.0mm 14 W/m2
06:44 69.3 °F /  20.7 °C 63.5 °F /  17.5 °C 29.9in /  1012.5hPa Calm     82% 0in /  0.0mm 16 W/m2
06:49 69.3 °F /  20.7 °C 63.5 °F /  17.5 °C 29.9in /  1012.5hPa Calm     82% 0in /  0.0mm 19 W/m2
06:54 69.3 °F /  20.7 °C 63.5 °F /  17.5 °C 29.9in /  1012.5hPa Calm     82% 0in /  0.0mm 25 W/m2
06:59 69.3 °F /  20.7 °C 63.5 °F /  17.5 °C 29.9in /  1012.5hPa Calm     82% 0in /  0.0mm 26 W/m2
07:04 69.3 °F /  20.7 °C 63.5 °F /  17.5 °C 29.9in /  1012.5hPa Calm     82% 0in /  0.0mm 30 W/m2
07:09 69.3 °F /  20.7 °C 63.5 °F /  17.5 °C 29.9in /  1012.5hPa Calm     82% 0in /  0.0mm 33 W/m2
07:14 69.4 °F /  20.8 °C 63.7 °F /  17.6 °C 29.9in /  1012.5hPa Calm     82% 0in /  0.0mm 35 W/m2
07:19 69.6 °F /  20.9 °C 63.9 °F /  17.7 °C 29.9in /  1012.5hPa Calm     82% 0in /  0.0mm 37 W/m2
07:24 70 °F /  21.1 °C 64.2 °F /  17.9 °C 29.9in /  1012.5hPa Calm     82% 0in /  0.0mm 40 W/m2
07:29 70.2 °F /  21.2 °C 64 °F /  17.8 °C 29.9in /  1012.5hPa Calm     81% 0in /  0.0mm 42 W/m2
07:34 70.3 °F /  21.3 °C 63.9 °F /  17.7 °C 29.9in /  1012.5hPa ESE 0.9mph /  1.4km/h 2mph /  3.2km/h 80% 0in /  0.0mm 44 W/m2
07:39 70.9 °F /  21.6 °C 64.4 °F /  18 °C 29.9in /  1012.5hPa ESE 0.9mph /  1.4km/h 2mph /  3.2km/h 80% 0in /  0.0mm 46 W/m2
07:44 71.1 °F /  21.7 °C 64.2 °F /  17.9 °C 29.9in /  1012.5hPa Calm     79% 0in /  0.0mm 47 W/m2
07:49 71.2 °F /  21.8 °C 64 °F /  17.8 °C 29.9in /  1012.5hPa ENE 0.9mph /  1.4km/h 3mph /  4.8km/h 78% 0in /  0.0mm 49 W/m2
07:54 71.8 °F /  22.1 °C 64.6 °F /  18.1 °C 29.9in /  1012.5hPa Calm   1mph /  1.6km/h 78% 0in /  0.0mm 51 W/m2
07:59 72 °F /  22.2 °C 64.8 °F /  18.2 °C 29.9in /  1012.9hPa ENE 0.9mph /  1.4km/h 2mph /  3.2km/h 78% 0in /  0.0mm 83 W/m2
08:04 72.3 °F /  22.4 °C 64.8 °F /  18.2 °C 29.9in /  1012.9hPa Calm   1mph /  1.6km/h 77% 0in /  0.0mm 67 W/m2
08:09 72.7 °F /  22.6 °C 64.8 °F /  18.2 °C 29.9in /  1012.9hPa NE 2mph /  3.2km/h 4mph /  6.4km/h 76% 0in /  0.0mm 62 W/m2
08:14 73 °F /  22.8 °C 64.6 °F /  18.1 °C 29.9in /  1012.9hPa NE 0.9mph /  1.4km/h 3mph /  4.8km/h 75% 0in /  0.0mm 62 W/m2
08:19 73.6 °F /  23.1 °C 64.8 °F /  18.2 °C 29.9in /  1012.9hPa Calm   2mph /  3.2km/h 74% 0in /  0.0mm 62 W/m2
08:24 73.8 °F /  23.2 °C 64.9 °F /  18.3 °C 29.9in /  1012.9hPa ENE 2mph /  3.2km/h 3mph /  4.8km/h 74% 0in /  0.0mm 62 W/m2
08:29 74.3 °F /  23.5 °C 65.1 °F /  18.4 °C 29.9in /  1012.9hPa Calm   2mph /  3.2km/h 73% 0in /  0.0mm 62 W/m2
08:34 74.8 °F /  23.8 °C 65.7 °F /  18.7 °C 29.9in /  1012.9hPa NE 0.9mph /  1.4km/h 2mph /  3.2km/h 73% 0in /  0.0mm 69 W/m2
08:40 75.4 °F /  24.1 °C 65.7 °F /  18.7 °C 29.9in /  1012.9hPa NNE 0.9mph /  1.4km/h 1mph /  1.6km/h 72% 0in /  0.0mm 70 W/m2
08:45 75.6 °F /  24.2 °C 65.5 °F /  18.6 °C 29.9in /  1012.5hPa ENE 0.9mph /  1.4km/h 3mph /  4.8km/h 71% 0in /  0.0mm 72 W/m2
08:50 75.9 °F /  24.4 °C 65.5 °F /  18.6 °C 29.9in /  1012.9hPa North 0.9mph /  1.4km/h 2mph /  3.2km/h 70% 0in /  0.0mm 84 W/m2
08:55 76.3 °F /  24.6 °C 65.3 °F /  18.5 °C 29.9in /  1012.9hPa ESE 2.9mph /  4.7km/h 4mph /  6.4km/h 69% 0in /  0.0mm 214 W/m2
09:00 76.5 °F /  24.7 °C 65.5 °F /  18.6 °C 29.9in /  1012.9hPa ENE 0.9mph /  1.4km/h 4mph /  6.4km/h 69% 0in /  0.0mm 271 W/m2
09:05 76.6 °F /  24.8 °C 65.7 °F /  18.7 °C 29.9in /  1012.5hPa ESE 2.9mph /  4.7km/h 3mph /  4.8km/h 69% 0in /  0.0mm 288 W/m2
09:10 76.6 °F /  24.8 °C 65.7 °F /  18.7 °C 29.9in /  1012.5hPa Calm   1mph /  1.6km/h 69% 0in /  0.0mm 306 W/m2
09:15 76.6 °F /  24.8 °C 65.7 °F /  18.7 °C 29.9in /  1012.5hPa NE 2.9mph /  4.7km/h 3mph /  4.8km/h 69% 0in /  0.0mm 320 W/m2
09:20 76.8 °F /  24.9 °C 65.8 °F /  18.8 °C 29.9in /  1012.5hPa North 2mph /  3.2km/h 3mph /  4.8km/h 69% 0in /  0.0mm 332 W/m2
09:25 76.8 °F /  24.9 °C 65.5 °F /  18.6 °C 29.9in /  1012.5hPa ESE 0.9mph /  1.4km/h 2mph /  3.2km/h 68% 0in /  0.0mm 345 W/m2
09:30 77 °F /  25 °C 65.7 °F /  18.7 °C 29.9in /  1012.5hPa ENE 2.9mph /  4.7km/h 3mph /  4.8km/h 68% 0in /  0.0mm 359 W/m2
09:35 77.4 °F /  25.2 °C 66 °F /  18.9 °C 29.9in /  1012.5hPa East 0.9mph /  1.4km/h 2mph /  3.2km/h 68% 0in /  0.0mm 378 W/m2
09:40 77.7 °F /  25.4 °C 65.8 °F /  18.8 °C 29.9in /  1012.5hPa ENE 2.9mph /  4.7km/h 4mph /  6.4km/h 67% 0in /  0.0mm 320 W/m2
09:45 78.3 °F /  25.7 °C 66 °F /  18.9 °C 29.9in /  1012.5hPa ENE 0.9mph /  1.4km/h 6mph /  9.7km/h 66% 0in /  0.0mm 114 W/m2
09:50 78.6 °F /  25.9 °C 66.4 °F /  19.1 °C 29.9in /  1012.5hPa NE 0.9mph /  1.4km/h 4mph /  6.4km/h 66% 0in /  0.0mm 264 W/m2
09:55 79 °F /  26.1 °C 66.2 °F /  19 °C 29.9in /  1012.5hPa SE 2mph /  3.2km/h 2mph /  3.2km/h 65% 0in /  0.0mm 251 W/m2
10:00 79.3 °F /  26.3 °C 66.6 °F /  19.2 °C 29.9in /  1012.5hPa NE 4.9mph /  7.9km/h 5mph /  8km/h 65% 0in /  0.0mm 413 W/m2
10:05 79.5 °F /  26.4 °C 66.2 °F /  19 °C 29.9in /  1012.5hPa East 0.9mph /  1.4km/h 3mph /  4.8km/h 64% 0in /  0.0mm 369 W/m2
10:10 80.1 °F /  26.7 °C 66.4 °F /  19.1 °C 29.9in /  1012.5hPa ENE 4.9mph /  7.9km/h 5mph /  8km/h 63% 0in /  0.0mm 487 W/m2
10:15 80.2 °F /  26.8 °C 66.6 °F /  19.2 °C 29.9in /  1012.5hPa ESE 0.9mph /  1.4km/h 2mph /  3.2km/h 63% 0in /  0.0mm 468 W/m2
10:20 80.8 °F /  27.1 °C 66.6 °F /  19.2 °C 29.9in /  1012.5hPa ENE 2.9mph /  4.7km/h 5mph /  8km/h 62% 0in /  0.0mm 492 W/m2
10:25 81.1 °F /  27.3 °C 66.4 °F /  19.1 °C 29.9in /  1012.5hPa SE 4.9mph /  7.9km/h 6mph /  9.7km/h 61% 0in /  0.0mm 404 W/m2
10:30 81.1 °F /  27.3 °C 66.4 °F /  19.1 °C 29.9in /  1012.5hPa ENE 0.9mph /  1.4km/h 3mph /  4.8km/h 61% 0in /  0.0mm 503 W/m2
10:35 81.9 °F /  27.7 °C 67.1 °F /  19.5 °C 29.9in /  1012.5hPa NNE 0.9mph /  1.4km/h 3mph /  4.8km/h 61% 0in /  0.0mm 749 W/m2
10:40 82.6 °F /  28.1 °C 66.7 °F /  19.3 °C 29.9in /  1012.5hPa ESE 6mph /  9.7km/h 6mph /  9.7km/h 59% 0in /  0.0mm 508 W/m2
10:45 82.8 °F /  28.2 °C 66.9 °F /  19.4 °C 29.9in /  1012.5hPa ESE 2mph /  3.2km/h 4mph /  6.4km/h 59% 0in /  0.0mm 526 W/m2
10:50 82.8 °F /  28.2 °C 66.6 °F /  19.2 °C 29.9in /  1012.5hPa WNW 2mph /  3.2km/h 6mph /  9.7km/h 58% 0in /  0.0mm 671 W/m2
10:55 82.9 °F /  28.3 °C 67.1 °F /  19.5 °C 29.9in /  1012.5hPa NW 2mph /  3.2km/h 2mph /  3.2km/h 59% 0in /  0.0mm 605 W/m2
11:00 83.3 °F /  28.5 °C 66.9 °F /  19.4 °C 29.9in /  1012.5hPa East 2.9mph /  4.7km/h 5mph /  8km/h 58% 0in /  0.0mm 631 W/m2
11:06 83.8 °F /  28.8 °C 67.5 °F /  19.7 °C 29.9in /  1012.5hPa NW 2mph /  3.2km/h 2mph /  3.2km/h 58% 0in /  0.0mm 408 W/m2
11:11 84 °F /  28.9 °C 67.1 °F /  19.5 °C 29.9in /  1012.5hPa Calm   2mph /  3.2km/h 57% 0in /  0.0mm 510 W/m2
11:16 84.4 °F /  29.1 °C 67.5 °F /  19.7 °C 29.9in /  1012.5hPa SE 2.9mph /  4.7km/h 4mph /  6.4km/h 57% 0in /  0.0mm 302 W/m2
11:21 84 °F /  28.9 °C 67.1 °F /  19.5 °C 29.9in /  1012.5hPa East 0.9mph /  1.4km/h 5mph /  8km/h 57% 0in /  0.0mm 338 W/m2
11:26 84 °F /  28.9 °C 67.1 °F /  19.5 °C 29.9in /  1012.5hPa NE 2mph /  3.2km/h 6mph /  9.7km/h 57% 0in /  0.0mm 619 W/m2
11:31 84 °F /  28.9 °C 67.1 °F /  19.5 °C 29.9in /  1012.5hPa East 2.9mph /  4.7km/h 4mph /  6.4km/h 57% 0in /  0.0mm 380 W/m2
11:36 84.2 °F /  29 °C 67.3 °F /  19.6 °C 29.9in /  1012.5hPa NNW 0.9mph /  1.4km/h 3mph /  4.8km/h 57% 0in /  0.0mm 294 W/m2
11:41 84.4 °F /  29.1 °C 66.9 °F /  19.4 °C 29.9in /  1012.5hPa ESE 0.9mph /  1.4km/h 2mph /  3.2km/h 56% 0in /  0.0mm 281 W/m2
11:46 84.6 °F /  29.2 °C 67.1 °F /  19.5 °C 29.9in /  1012.5hPa NNW 2.9mph /  4.7km/h 3mph /  4.8km/h 56% 0in /  0.0mm 283 W/m2
11:51 84.7 °F /  29.3 °C 67.3 °F /  19.6 °C 29.9in /  1012.5hPa East 0.9mph /  1.4km/h 3mph /  4.8km/h 56% 0in /  0.0mm 334 W/m2
11:56 84.9 °F /  29.4 °C 67.5 °F /  19.7 °C 29.9in /  1012.5hPa NNW 2mph /  3.2km/h 4mph /  6.4km/h 56% 0in /  0.0mm 295 W/m2
12:01 84.9 °F /  29.4 °C 67.5 °F /  19.7 °C 29.9in /  1012.5hPa NE 2mph /  3.2km/h 5mph /  8km/h 56% 0in /  0.0mm 285 W/m2
12:06 85.1 °F /  29.5 °C 67.6 °F /  19.8 °C 29.9in /  1012.5hPa ESE 2.9mph /  4.7km/h 3mph /  4.8km/h 56% 0in /  0.0mm 287 W/m2
12:11 85.3 °F /  29.6 °C 67.3 °F /  19.6 °C 29.9in /  1012.2hPa ENE 4.9mph /  7.9km/h 5mph /  8km/h 55% 0in /  0.0mm 315 W/m2
12:16 85.3 °F /  29.6 °C 66.7 °F /  19.3 °C 29.9in /  1012.5hPa East 2.9mph /  4.7km/h 5mph /  8km/h 54% 0in /  0.0mm 323 W/m2
12:22 85.5 °F /  29.7 °C 66.9 °F /  19.4 °C 29.9in /  1012.5hPa East 2.9mph /  4.7km/h 4mph /  6.4km/h 54% 0in /  0.0mm 388 W/m2
12:27 85.6 °F /  29.8 °C 67.1 °F /  19.5 °C 29.9in /  1012.5hPa NE 4mph /  6.4km/h 4mph /  6.4km/h 54% 0in /  0.0mm 341 W/m2
12:32 85.8 °F /  29.9 °C 66.7 °F /  19.3 °C 29.9in /  1012.5hPa NNE 2mph /  3.2km/h 2mph /  3.2km/h 53% 0in /  0.0mm 341 W/m2
12:37 86.2 °F /  30.1 °C 67.1 °F /  19.5 °C 29.9in /  1012.5hPa NE 2.9mph /  4.7km/h 3mph /  4.8km/h 53% 0in /  0.0mm 302 W/m2
12:42 86.4 °F /  30.2 °C 67.3 °F /  19.6 °C 29.9in /  1012.5hPa NE 0.9mph /  1.4km/h 1mph /  1.6km/h 53% 0in /  0.0mm 309 W/m2
12:47 86.5 °F /  30.3 °C 66.7 °F /  19.3 °C 29.9in /  1012.5hPa NE 2mph /  3.2km/h 4mph /  6.4km/h 52% 0in /  0.0mm 306 W/m2
12:52 86.7 °F /  30.4 °C 66.9 °F /  19.4 °C 29.9in /  1012.5hPa ENE 0.9mph /  1.4km/h 2mph /  3.2km/h 52% 0in /  0.0mm 304 W/m2
12:57 86.9 °F /  30.5 °C 66.6 °F /  19.2 °C 29.9in /  1012.2hPa East 2.9mph /  4.7km/h 6mph /  9.7km/h 51% 0in /  0.0mm 366 W/m2
13:02 87.3 °F /  30.7 °C 66.4 °F /  19.1 °C 29.9in /  1012.2hPa Calm   1mph /  1.6km/h 50% 0in /  0.0mm 408 W/m2
13:07 88 °F /  31.1 °C 66.9 °F /  19.4 °C 29.9in /  1012.2hPa ENE 2mph /  3.2km/h 6mph /  9.7km/h 50% 0in /  0.0mm 599 W/m2
13:13 88.3 °F /  31.3 °C 66.7 °F /  19.3 °C 29.9in /  1012.2hPa Calm   2mph /  3.2km/h 49% 0in /  0.0mm 886 W/m2
13:18 88.5 °F /  31.4 °C 66.9 °F /  19.4 °C 29.9in /  1011.9hPa WNW 0.9mph /  1.4km/h 1mph /  1.6km/h 49% 0in /  0.0mm 178 W/m2
13:23 88.7 °F /  31.5 °C 65.8 °F /  18.8 °C 29.9in /  1011.9hPa ENE 2.9mph /  4.7km/h 5mph /  8km/h 47% 0in /  0.0mm 840 W/m2
13:28 89.2 °F /  31.8 °C 66.4 °F /  19.1 °C 29.9in /  1011.9hPa ENE 0.9mph /  1.4km/h 2mph /  3.2km/h 47% 0in /  0.0mm 791 W/m2
13:33 89.8 °F /  32.1 °C 67.5 °F /  19.7 °C 29.9in /  1011.9hPa SE 0.9mph /  1.4km/h 2mph /  3.2km/h 48% 0in /  0.0mm 775 W/m2
13:38 90.1 °F /  32.3 °C 67.1 °F /  19.5 °C 29.9in /  1011.9hPa Calm   7mph /  11.3km/h 47% 0in /  0.0mm 772 W/m2
13:43 90.9 °F /  32.7 °C 67.3 °F /  19.6 °C 29.9in /  1011.9hPa ESE 2.9mph /  4.7km/h 4mph /  6.4km/h 46% 0in /  0.0mm 773 W/m2
13:48 91.2 °F /  32.9 °C 66.9 °F /  19.4 °C 29.9in /  1011.9hPa NNW 2.9mph /  4.7km/h 3mph /  4.8km/h 45% 0in /  0.0mm 777 W/m2
13:53 91 °F /  32.8 °C 66 °F /  18.9 °C 29.9in /  1011.5hPa NNE 0.9mph /  1.4km/h 3mph /  4.8km/h 44% 0in /  0.0mm 780 W/m2
13:58 91.2 °F /  32.9 °C 66.2 °F /  19 °C 29.9in /  1011.5hPa SSE 0.9mph /  1.4km/h 4mph /  6.4km/h 44% 0in /  0.0mm 770 W/m2
14:03 91.2 °F /  32.9 °C 66.2 °F /  19 °C 29.9in /  1011.5hPa East 2.9mph /  4.7km/h 4mph /  6.4km/h 44% 0in /  0.0mm 766 W/m2
14:08 91.2 °F /  32.9 °C 66.2 °F /  19 °C 29.9in /  1011.5hPa East 2.9mph /  4.7km/h 5mph /  8km/h 44% 0in /  0.0mm 765 W/m2
14:13 91.6 °F /  33.1 °C 65.8 °F /  18.8 °C 29.9in /  1011.5hPa ESE 0.9mph /  1.4km/h 4mph /  6.4km/h 43% 0in /  0.0mm 758 W/m2
14:18 91.8 °F /  33.2 °C 66.7 °F /  19.3 °C 29.9in /  1011.5hPa SW 0.9mph /  1.4km/h 2mph /  3.2km/h 44% 0in /  0.0mm 761 W/m2
14:23 91.8 °F /  33.2 °C 66 °F /  18.9 °C 29.9in /  1011.2hPa Calm   3mph /  4.8km/h 43% 0in /  0.0mm 763 W/m2
14:29 92.5 °F /  33.6 °C 66.7 °F /  19.3 °C 29.9in /  1011.2hPa East 2mph /  3.2km/h 4mph /  6.4km/h 43% 0in /  0.0mm 759 W/m2
14:34 92.8 °F /  33.8 °C 66.4 °F /  19.1 °C 29.9in /  1011.2hPa ENE 2mph /  3.2km/h 2mph /  3.2km/h 42% 0in /  0.0mm 758 W/m2
14:39 92.8 °F /  33.8 °C 67.1 °F /  19.5 °C 29.9in /  1011.2hPa NNE 0.9mph /  1.4km/h 2mph /  3.2km/h 43% 0in /  0.0mm 756 W/m2
14:44 93 °F /  33.9 °C 66.6 °F /  19.2 °C 29.9in /  1011.2hPa NNW 2mph /  3.2km/h 3mph /  4.8km/h 42% 0in /  0.0mm 745 W/m2
14:49 93 °F /  33.9 °C 66.6 °F /  19.2 °C 29.9in /  1011.2hPa Calm   1mph /  1.6km/h 42% 0in /  0.0mm 747 W/m2
14:54 93.6 °F /  34.2 °C 67.1 °F /  19.5 °C 29.9in /  1011.2hPa WNW 2mph /  3.2km/h 2mph /  3.2km/h 42% 0in /  0.0mm 735 W/m2
14:59 93.9 °F /  34.4 °C 66.6 °F /  19.2 °C 29.9in /  1010.8hPa ENE 0.9mph /  1.4km/h 5mph /  8km/h 41% 0in /  0.0mm 726 W/m2
15:04 93.9 °F /  34.4 °C 66.6 °F /  19.2 °C 29.9in /  1010.8hPa SW 0.9mph /  1.4km/h 5mph /  8km/h 41% 0in /  0.0mm 721 W/m2
15:09 94.1 °F /  34.5 °C 66 °F /  18.9 °C 29.9in /  1010.8hPa NE 0.9mph /  1.4km/h 4mph /  6.4km/h 40% 0in /  0.0mm 728 W/m2
15:14 94.5 °F /  34.7 °C 67.1 °F /  19.5 °C 29.9in /  1010.8hPa ENE 2mph /  3.2km/h 3mph /  4.8km/h 41% 0in /  0.0mm 729 W/m2
15:19 94.6 °F /  34.8 °C 66.6 °F /  19.2 °C 29.9in /  1010.8hPa NW 2.9mph /  4.7km/h 3mph /  4.8km/h 40% 0in /  0.0mm 729 W/m2
15:24 94.6 °F /  34.8 °C 66.6 °F /  19.2 °C 29.9in /  1010.8hPa East 4mph /  6.4km/h 4mph /  6.4km/h 40% 0in /  0.0mm 712 W/m2
15:29 94.8 °F /  34.9 °C 66 °F /  18.9 °C 29.9in /  1010.8hPa ENE 2.9mph /  4.7km/h 7mph /  11.3km/h 39% 0in /  0.0mm 737 W/m2
15:34 95.2 °F /  35.1 °C 65.5 °F /  18.6 °C 29.9in /  1010.8hPa ENE 0.9mph /  1.4km/h 2mph /  3.2km/h 38% 0in /  0.0mm 689 W/m2
15:39 95.4 °F /  35.2 °C 66.6 °F /  19.2 °C 29.8in /  1010.5hPa East 2mph /  3.2km/h 7mph /  11.3km/h 39% 0in /  0.0mm 162 W/m2
15:44 95.5 °F /  35.3 °C 65.8 °F /  18.8 °C 29.8in /  1010.5hPa ESE 2.9mph /  4.7km/h 5mph /  8km/h 38% 0in /  0.0mm 701 W/m2
15:49 95.5 °F /  35.3 °C 65.8 °F /  18.8 °C 29.8in /  1010.5hPa West 0.9mph /  1.4km/h 4mph /  6.4km/h 38% 0in /  0.0mm 700 W/m2
15:54 95.5 °F /  35.3 °C 66.6 °F /  19.2 °C 29.8in /  1010.2hPa ESE 2mph /  3.2km/h 3mph /  4.8km/h 39% 0in /  0.0mm 691 W/m2
15:59 95.5 °F /  35.3 °C 65.8 °F /  18.8 °C 29.8in /  1010.2hPa West 2mph /  3.2km/h 4mph /  6.4km/h 38% 0in /  0.0mm 689 W/m2
16:04 95.5 °F /  35.3 °C 65.8 °F /  18.8 °C 29.8in /  1010.2hPa East 0.9mph /  1.4km/h 4mph /  6.4km/h 38% 0in /  0.0mm 686 W/m2
16:09 96.1 °F /  35.6 °C 65.7 °F /  18.7 °C 29.8in /  1010.2hPa North 2mph /  3.2km/h 3mph /  4.8km/h 37% 0in /  0.0mm 686 W/m2
16:14 96.3 °F /  35.7 °C 65.7 °F /  18.7 °C 29.8in /  1010.2hPa East 2mph /  3.2km/h 3mph /  4.8km/h 37% 0in /  0.0mm 663 W/m2
16:19 96.6 °F /  35.9 °C 64.4 °F /  18 °C 29.8in /  1010.2hPa ENE 2.9mph /  4.7km/h 7mph /  11.3km/h 35% 0in /  0.0mm 671 W/m2
16:24 96.6 °F /  35.9 °C 64.4 °F /  18 °C 29.8in /  1010.2hPa NW 0.9mph /  1.4km/h 8mph /  12.9km/h 35% 0in /  0.0mm 689 W/m2
16:29 96.3 °F /  35.7 °C 64.2 °F /  17.9 °C 29.8in /  1010.2hPa East 10.1mph /  16.3km/h 10mph /  16.1km/h 35% 0in /  0.0mm 292 W/m2
16:34 94.8 °F /  34.9 °C 64.4 °F /  18 °C 29.8in /  1010.5hPa WNW 4.9mph /  7.9km/h 9mph /  14.5km/h 37% 0in /  0.0mm 199 W/m2
16:39 92.1 °F /  33.4 °C 62.8 °F /  17.1 °C 29.9in /  1010.8hPa East 6.9mph /  11.1km/h 7mph /  11.3km/h 38% 0in /  0.0mm 221 W/m2
16:44 90.1 °F /  32.3 °C 62.6 °F /  17 °C 29.9in /  1010.8hPa NNW 2.9mph /  4.7km/h 5mph /  8km/h 40% 0in /  0.0mm 279 W/m2
16:49 88.9 °F /  31.6 °C 62.1 °F /  16.7 °C 29.9in /  1010.8hPa East 2.9mph /  4.7km/h 10mph /  16.1km/h 41% 0in /  0.0mm 141 W/m2
16:54 87.6 °F /  30.9 °C 63 °F /  17.2 °C 29.9in /  1010.8hPa East 14.1mph /  22.7km/h 14mph /  22.5km/h 44% 0in /  0.0mm 139 W/m2
16:59 86.4 °F /  30.2 °C 63.1 °F /  17.3 °C 29.9in /  1010.8hPa South 10.1mph /  16.3km/h 15mph /  24.1km/h 46% 0in /  0.0mm 123 W/m2
17:04 85.3 °F /  29.6 °C 62.2 °F /  16.8 °C 29.9in /  1010.8hPa South 6mph /  9.7km/h 11mph /  17.7km/h 46% 0in /  0.0mm 93 W/m2
17:09 84.7 °F /  29.3 °C 62.2 °F /  16.8 °C 29.9in /  1010.8hPa East 4.9mph /  7.9km/h 9mph /  14.5km/h 47% 0in /  0.0mm 156 W/m2
17:15 85.1 °F /  29.5 °C 62.6 °F /  17 °C 29.8in /  1010.5hPa NNE 2.9mph /  4.7km/h 3mph /  4.8km/h 47% 0in /  0.0mm 541 W/m2
17:20 86.4 °F /  30.2 °C 62.4 °F /  16.9 °C 29.8in /  1010.5hPa NE 6mph /  9.7km/h 9mph /  14.5km/h 45% 0in /  0.0mm 527 W/m2
17:25 87.6 °F /  30.9 °C 62.4 °F /  16.9 °C 29.8in /  1010.2hPa ENE 0.9mph /  1.4km/h 4mph /  6.4km/h 43% 0in /  0.0mm 499 W/m2
17:30 88.9 °F /  31.6 °C 60.8 °F /  16 °C 29.8in /  1010.2hPa NNW 2.9mph /  4.7km/h 11mph /  17.7km/h 39% 0in /  0.0mm 501 W/m2
17:35 89.8 °F /  32.1 °C 60.8 °F /  16 °C 29.8in /  1010.2hPa North 2mph /  3.2km/h 9mph /  14.5km/h 38% 0in /  0.0mm 425 W/m2
17:40 90.1 °F /  32.3 °C 61.2 °F /  16.2 °C 29.8in /  1010.2hPa NW 2mph /  3.2km/h 11mph /  17.7km/h 38% 0in /  0.0mm 223 W/m2
17:45 90.7 °F /  32.6 °C 60.8 °F /  16 °C 29.8in /  1010.2hPa West 2.9mph /  4.7km/h 3mph /  4.8km/h 37% 0in /  0.0mm 485 W/m2
17:50 91.2 °F /  32.9 °C 61.3 °F /  16.3 °C 29.8in /  1010.2hPa NE 0.9mph /  1.4km/h 8mph /  12.9km/h 37% 0in /  0.0mm 475 W/m2
17:55 91.9 °F /  33.3 °C 61.9 °F /  16.6 °C 29.8in /  1009.8hPa East 2mph /  3.2km/h 2mph /  3.2km/h 37% 0in /  0.0mm 427 W/m2
18:00 92.3 °F /  33.5 °C 62.2 °F /  16.8 °C 29.8in /  1009.8hPa ENE 0.9mph /  1.4km/h 3mph /  4.8km/h 37% 0in /  0.0mm 441 W/m2
18:06 92.1 °F /  33.4 °C 61.3 °F /  16.3 °C 29.8in /  1009.8hPa SSW 2mph /  3.2km/h 2mph /  3.2km/h 36% 0in /  0.0mm 121 W/m2
18:11 91.6 °F /  33.1 °C 60.8 °F /  16 °C 29.8in /  1009.8hPa ENE 2mph /  3.2km/h 2mph /  3.2km/h 36% 0in /  0.0mm 134 W/m2
18:16 91 °F /  32.8 °C 60.4 °F /  15.8 °C 29.8in /  1009.8hPa NNE 2mph /  3.2km/h 3mph /  4.8km/h 36% 0in /  0.0mm 276 W/m2
18:21 91.2 °F /  32.9 °C 61.3 °F /  16.3 °C 29.8in /  1009.8hPa NE 0.9mph /  1.4km/h 1mph /  1.6km/h 37% 0in /  0.0mm 327 W/m2
18:26 91.4 °F /  33 °C 61.5 °F /  16.4 °C 29.8in /  1009.8hPa ESE 2mph /  3.2km/h 3mph /  4.8km/h 37% 0in /  0.0mm 244 W/m2
18:31 91 °F /  32.8 °C 60.4 °F /  15.8 °C 29.8in /  1009.8hPa ENE 2mph /  3.2km/h 4mph /  6.4km/h 36% 0in /  0.0mm 123 W/m2
18:36 90.3 °F /  32.4 °C 61.3 °F /  16.3 °C 29.8in /  1009.8hPa SE 2.9mph /  4.7km/h 4mph /  6.4km/h 38% 0in /  0.0mm 123 W/m2
18:41 89.4 °F /  31.9 °C 60.4 °F /  15.8 °C 29.8in /  1009.8hPa East 2mph /  3.2km/h 6mph /  9.7km/h 38% 0in /  0.0mm 128 W/m2
18:46 88.9 °F /  31.6 °C 60.8 °F /  16 °C 29.8in /  1009.8hPa ENE 0.9mph /  1.4km/h 4mph /  6.4km/h 39% 0in /  0.0mm 225 W/m2
18:51 88.9 °F /  31.6 °C 61.5 °F /  16.4 °C 29.8in /  1009.8hPa Calm   1mph /  1.6km/h 40% 0in /  0.0mm 250 W/m2
18:56 89.1 °F /  31.7 °C 61.5 °F /  16.4 °C 29.8in /  1009.8hPa East 0.9mph /  1.4km/h 3mph /  4.8km/h 40% 0in /  0.0mm 132 W/m2
19:01 89.1 °F /  31.7 °C 62.2 °F /  16.8 °C 29.8in /  1009.8hPa Calm   1mph /  1.6km/h 41% 0in /  0.0mm 116 W/m2
19:06 88.9 °F /  31.6 °C 62.1 °F /  16.7 °C 29.8in /  1009.8hPa East 0.9mph /  1.4km/h 3mph /  4.8km/h 41% 0in /  0.0mm 104 W/m2
19:11 88.5 °F /  31.4 °C 61.9 °F /  16.6 °C 29.8in /  1009.8hPa Calm   1mph /  1.6km/h 41% 0in /  0.0mm 105 W/m2
19:16 88.2 °F /  31.2 °C 62.2 °F /  16.8 °C 29.8in /  1009.8hPa Calm     42% 0in /  0.0mm 97 W/m2
19:21 88 °F /  31.1 °C 62.1 °F /  16.7 °C 29.8in /  1009.8hPa Calm   3mph /  4.8km/h 42% 0in /  0.0mm 72 W/m2
19:26 87.6 °F /  30.9 °C 63 °F /  17.2 °C 29.8in /  1009.8hPa NE 0.9mph /  1.4km/h 1mph /  1.6km/h 44% 0in /  0.0mm 62 W/m2
19:31 87.4 °F /  30.8 °C 63.5 °F /  17.5 °C 29.8in /  1009.8hPa NE 0.9mph /  1.4km/h 3mph /  4.8km/h 45% 0in /  0.0mm 100 W/m2
19:36 87.1 °F /  30.6 °C 62.6 °F /  17 °C 29.8in /  1009.8hPa Calm     44% 0in /  0.0mm 88 W/m2
19:41 86.7 °F /  30.4 °C 62.2 °F /  16.8 °C 29.8in /  1009.8hPa Calm     44% 0in /  0.0mm 95 W/m2
19:46 86.5 °F /  30.3 °C 62.6 °F /  17 °C 29.8in /  1010.2hPa Calm   1mph /  1.6km/h 45% 0in /  0.0mm 77 W/m2
19:51 86.4 °F /  30.2 °C 63.1 °F /  17.3 °C 29.8in /  1010.2hPa Calm     46% 0in /  0.0mm 70 W/m2
19:57 86.2 °F /  30.1 °C 63 °F /  17.2 °C 29.8in /  1010.2hPa Calm   1mph /  1.6km/h 46% 0in /  0.0mm 60 W/m2
20:02 85.8 °F /  29.9 °C 63.9 °F /  17.7 °C 29.8in /  1010.2hPa Calm     48% 0in /  0.0mm 42 W/m2
20:07 85.5 °F /  29.7 °C 63.5 °F /  17.5 °C 29.8in /  1010.2hPa Calm   1mph /  1.6km/h 48% 0in /  0.0mm 28 W/m2
20:12 84.9 °F /  29.4 °C 63.7 °F /  17.6 °C 29.8in /  1010.5hPa Calm     49% 0in /  0.0mm 21 W/m2
20:17 84.4 °F /  29.1 °C 61.9 °F /  16.6 °C 29.8in /  1010.5hPa East 2mph /  3.2km/h 6mph /  9.7km/h 47% 0in /  0.0mm 18 W/m2
20:22 84.2 °F /  29 °C 62.4 °F /  16.9 °C 29.8in /  1010.5hPa NNE 2mph /  3.2km/h 3mph /  4.8km/h 48% 0in /  0.0mm 14 W/m2
20:27 84 °F /  28.9 °C 62.2 °F /  16.8 °C 29.8in /  1010.5hPa Calm   3mph /  4.8km/h 48% 0in /  0.0mm 12 W/m2
20:32 83.7 °F /  28.7 °C 62.4 °F /  16.9 °C 29.8in /  1010.5hPa East 2mph /  3.2km/h 3mph /  4.8km/h 49% 0in /  0.0mm 9 W/m2
20:37 83.3 °F /  28.5 °C 63.3 °F /  17.4 °C 29.8in /  1010.5hPa ENE 0.9mph /  1.4km/h 9mph /  14.5km/h 51% 0in /  0.0mm 7 W/m2
20:42 83.1 °F /  28.4 °C 64.2 °F /  17.9 °C 29.8in /  1010.5hPa East 0.9mph /  1.4km/h 4mph /  6.4km/h 53% 0in /  0.0mm 5 W/m2
20:47 82.8 °F /  28.2 °C 64.4 °F /  18 °C 29.8in /  1010.5hPa NE 0.9mph /  1.4km/h 5mph /  8km/h 54% 0in /  0.0mm 0 W/m2
20:52 82.6 °F /  28.1 °C 64.8 °F /  18.2 °C 29.8in /  1010.5hPa SE 0.9mph /  1.4km/h 3mph /  4.8km/h 55% 0in /  0.0mm 0 W/m2
20:57 82.2 °F /  27.9 °C 64.4 °F /  18 °C 29.8in /  1010.5hPa ESE 0.9mph /  1.4km/h 1mph /  1.6km/h 55% 0in /  0.0mm 0 W/m2
21:02 82 °F /  27.8 °C 64.8 °F /  18.2 °C 29.8in /  1010.5hPa ENE 0.9mph /  1.4km/h 3mph /  4.8km/h 56% 0in /  0.0mm 0 W/m2
21:07 81.9 °F /  27.7 °C 67.6 °F /  19.8 °C 29.9in /  1010.8hPa SSE 2mph /  3.2km/h 2mph /  3.2km/h 62% 0.02in /  0.5mm 0 W/m2
21:12 81 °F /  27.2 °C 70.2 °F /  21.2 °C 29.9in /  1011.2hPa South 0.9mph /  1.4km/h 2mph /  3.2km/h 70% 0.04in /  1.0mm 0 W/m2
21:17 78.6 °F /  25.9 °C 66.4 °F /  19.1 °C 29.9in /  1011.5hPa NW 4mph /  6.4km/h 5mph /  8km/h 66% 0.04in /  1.0mm 0 W/m2
21:22 78.1 °F /  25.6 °C 70 °F /  21.1 °C 29.9in /  1011.9hPa SW 0.9mph /  1.4km/h 2mph /  3.2km/h 76% 0.04in /  1.0mm 0 W/m2
21:27 76.8 °F /  24.9 °C 69.4 °F /  20.8 °C 29.9in /  1011.9hPa Calm   5mph /  8km/h 78% 0.04in /  1.0mm 0 W/m2
21:32 75.9 °F /  24.4 °C 69.3 °F /  20.7 °C 29.9in /  1011.9hPa Calm   1mph /  1.6km/h 80% 0.04in /  1.0mm 0 W/m2
21:37 75 °F /  23.9 °C 68.7 °F /  20.4 °C 29.9in /  1011.9hPa Calm   2mph /  3.2km/h 81% 0.04in /  1.0mm 0 W/m2
21:42 74.3 °F /  23.5 °C 68.4 °F /  20.2 °C 29.9in /  1012.2hPa South 2mph /  3.2km/h 4mph /  6.4km/h 82% 0.04in /  1.0mm 0 W/m2
21:47 73.8 °F /  23.2 °C 68.5 °F /  20.3 °C 29.9in /  1012.2hPa SSE 2.9mph /  4.7km/h 4mph /  6.4km/h 84% 0.04in /  1.0mm 0 W/m2
21:52 73.2 °F /  22.9 °C 68.7 °F /  20.4 °C 29.9in /  1012.2hPa WSW 0.9mph /  1.4km/h 2mph /  3.2km/h 86% 0.05in /  1.3mm 0 W/m2
21:57 73.2 °F /  22.9 °C 69.1 °F /  20.6 °C 29.9in /  1011.9hPa WSW 0.9mph /  1.4km/h 1mph /  1.6km/h 87% 0.08in /  2.0mm 0 W/m2
22:02 73 °F /  22.8 °C 69.3 °F /  20.7 °C 29.9in /  1011.5hPa WSW 4mph /  6.4km/h 4mph /  6.4km/h 88% 0.09in /  2.3mm 0 W/m2
22:07 73 °F /  22.8 °C 68.9 °F /  20.5 °C 29.9in /  1011.9hPa South 2mph /  3.2km/h 4mph /  6.4km/h 87% 0.06in /  1.5mm 0 W/m2
22:12 72.9 °F /  22.7 °C 69.1 °F /  20.6 °C 29.9in /  1011.9hPa West 2mph /  3.2km/h 3mph /  4.8km/h 88% 0.05in /  1.3mm 0 W/m2
22:17 72.5 °F /  22.5 °C 68.7 °F /  20.4 °C 29.9in /  1011.9hPa West 2.9mph /  4.7km/h 4mph /  6.4km/h 88% 0.05in /  1.3mm 0 W/m2
22:22 72.1 °F /  22.3 °C 68.7 °F /  20.4 °C 29.9in /  1012.2hPa SW 2mph /  3.2km/h 2mph /  3.2km/h 89% 0.05in /  1.3mm 0 W/m2
22:27 72.1 °F /  22.3 °C 69.1 °F /  20.6 °C 29.9in /  1012.2hPa WSW 0.9mph /  1.4km/h 3mph /  4.8km/h 90% 0.05in /  1.3mm 0 W/m2
22:33 71.8 °F /  22.1 °C 68.4 °F /  20.2 °C 29.9in /  1012.2hPa SSW 2mph /  3.2km/h 2mph /  3.2km/h 89% 0.05in /  1.3mm 0 W/m2
22:38 71.8 °F /  22.1 °C 68.7 °F /  20.4 °C 29.9in /  1012.2hPa SSW 0.9mph /  1.4km/h 2mph /  3.2km/h 90% 0.05in /  1.3mm 0 W/m2
22:43 71.8 °F /  22.1 °C 68.7 °F /  20.4 °C 29.9in /  1012.2hPa SW 0.9mph /  1.4km/h 2mph /  3.2km/h 90% 0.05in /  1.3mm 0 W/m2
22:48 71.4 °F /  21.9 °C 68.4 °F /  20.2 °C 29.9in /  1012.2hPa SW 0.9mph /  1.4km/h 3mph /  4.8km/h 90% 0.05in /  1.3mm 0 W/m2
22:53 71.4 °F /  21.9 °C 68.7 °F /  20.4 °C 29.9in /  1012.2hPa SW 0.9mph /  1.4km/h 1mph /  1.6km/h 91% 0.04in /  1.0mm 0 W/m2
22:58 71.2 °F /  21.8 °C 68.5 °F /  20.3 °C 29.9in /  1012.2hPa Calm   3mph /  4.8km/h 91% 0.01in /  0.2mm 0 W/m2
23:03 71.1 °F /  21.7 °C 68.4 °F /  20.2 °C 29.9in /  1012.2hPa North 0.9mph /  1.4km/h 3mph /  4.8km/h 91% 0in /  0.0mm 0 W/m2
23:08 71.2 °F /  21.8 °C 68.5 °F /  20.3 °C 29.9in /  1012.2hPa Calm   2mph /  3.2km/h 91% 0in /  0.0mm 0 W/m2
23:13 71.2 °F /  21.8 °C 68.5 °F /  20.3 °C 29.9in /  1012.2hPa South 0.9mph /  1.4km/h 2mph /  3.2km/h 91% 0in /  0.0mm 0 W/m2
23:18 71.1 °F /  21.7 °C 68.4 °F /  20.2 °C 29.9in /  1011.9hPa Calm   2mph /  3.2km/h 91% 0in /  0.0mm 0 W/m2
23:23 70.9 °F /  21.6 °C 68.2 °F /  20.1 °C 29.9in /  1011.9hPa Calm   4mph /  6.4km/h 91% 0in /  0.0mm 0 W/m2
23:28 70.5 °F /  21.4 °C 67.8 °F /  19.9 °C 29.9in /  1011.9hPa South 0.9mph /  1.4km/h 3mph /  4.8km/h 91% 0in /  0.0mm 0 W/m2
23:33 70.5 °F /  21.4 °C 67.8 °F /  19.9 °C 29.9in /  1011.9hPa West 0.9mph /  1.4km/h 2mph /  3.2km/h 91% 0in /  0.0mm 0 W/m2
23:38 70.5 °F /  21.4 °C 67.8 °F /  19.9 °C 29.9in /  1011.9hPa NW 0.9mph /  1.4km/h 4mph /  6.4km/h 91% 0in /  0.0mm 0 W/m2
23:43 70.7 °F /  21.5 °C 67.6 °F /  19.8 °C 29.9in /  1011.9hPa NW 2mph /  3.2km/h 6mph /  9.7km/h 90% 0in /  0.0mm 0 W/m2
23:48 70.9 °F /  21.6 °C 67.8 °F /  19.9 °C 29.9in /  1011.9hPa SSW 2mph /  3.2km/h 3mph /  4.8km/h 90% 0in /  0.0mm 0 W/m2
23:53 70.7 °F /  21.5 °C 67.6 °F /  19.8 °C 29.9in /  1011.5hPa SSW 0.9mph /  1.4km/h 5mph /  8km/h 90% 0in /  0.0mm 0 W/m2
23:58 70.5 °F /  21.4 °C 67.5 °F /  19.7 °C 29.9in /  1011.5hPa SSW 0.9mph /  1.4km/h 2mph /  3.2km/h 90% 0in /  0.0mm 0 W/m2
Juneau County Weather
Compliments of Weather Underground - 4 mb